Time;durP1;ratioP1;P1;durP2;ratioP2;P2;SDS_P1;SDS_P2;PMS_P1;PMS_P2;Temp;Humidity;BMP_temperature;BMP_pressure;BME280_temperature;BME280_humidity;BME280_pressure;Samples;Min_cycle;Max_cycle;Signal;HPM_P1;HPM_P2
2022/01/07 00:02:00;;;;;;;7.72;4.07;;;;;;;1.48;96.22;94453.75;5137574;27;20026;-68
2022/01/07 00:04:26;;;;;;;5.25;3.60;;;;;;;1.44;95.18;94453.84;5137757;27;20026;-68
2022/01/07 00:06:52;;;;;;;5.43;3.55;;;;;;;1.34;95.66;94444.97;5137471;27;20034;-68
2022/01/07 00:09:18;;;;;;;6.43;4.00;;;;;;;1.51;94.53;94453.66;5137457;27;20031;-68
2022/01/07 00:11:44;;;;;;;5.25;3.33;;;;;;;1.34;96.16;94449.59;5137698;27;20048;-68
2022/01/07 00:14:10;;;;;;;4.97;3.50;;;;;;;1.33;95.74;94461.44;5137422;27;20020;-69
2022/01/07 00:16:35;;;;;;;4.95;3.65;;;;;;;1.41;95.61;94449.34;5137599;27;20023;-69
2022/01/07 00:19:01;;;;;;;7.13;3.83;;;;;;;1.50;95.61;94467.44;5137286;27;20444;-67
2022/01/07 00:21:26;;;;;;;4.40;3.35;;;;;;;1.32;95.98;94470.63;5137101;27;20400;-68
2022/01/07 00:23:51;;;;;;;5.57;3.30;;;;;;;1.28;96.14;94470.00;5137102;27;20383;-68
2022/01/07 00:26:17;;;;;;;4.70;3.35;;;;;;;1.19;96.41;94465.28;5137578;27;20031;-68
2022/01/07 00:28:42;;;;;;;6.68;4.13;;;;;;;1.30;94.92;94471.06;5137035;27;20027;-69
2022/01/07 00:31:08;;;;;;;6.43;3.85;;;;;;;1.25;95.08;94468.91;5137298;27;20034;-68
2022/01/07 00:33:34;;;;;;;4.95;3.85;;;;;;;1.24;96.15;94472.78;5136875;27;20106;-69
2022/01/07 00:36:00;;;;;;;4.78;3.53;;;;;;;1.31;93.96;94467.22;5136804;27;20110;-68
2022/01/07 00:38:27;;;;;;;4.47;3.35;;;;;;;1.23;94.79;94465.16;5136834;27;20070;-68
2022/01/07 00:40:53;;;;;;;4.65;3.50;;;;;;;1.39;94.13;94472.34;5135808;27;20019;-68
2022/01/07 00:43:19;;;;;;;4.78;3.50;;;;;;;1.45;94.26;94465.31;5136570;27;20103;-68
2022/01/07 00:45:45;;;;;;;4.20;3.30;;;;;;;1.40;93.56;94466.56;5135975;27;20091;-69
2022/01/07 00:48:10;;;;;;;4.50;3.70;;;;;;;1.48;93.10;94475.88;5136651;27;20030;-69
2022/01/07 00:50:36;;;;;;;3.83;3.20;;;;;;;1.43;93.56;94479.13;5136613;27;20094;-69
2022/01/07 00:53:01;;;;;;;5.10;3.42;;;;;;;1.23;93.71;94475.88;5137112;27;20029;-69
2022/01/07 00:55:27;;;;;;;5.30;3.17;;;;;;;1.22;94.88;94483.16;5136688;27;20168;-68
2022/01/07 00:57:54;;;;;;;6.65;3.50;;;;;;;1.20;93.66;94493.53;5136712;27;20462;-68
2022/01/07 01:00:23;;;;;;;3.35;3.00;;;;;;;1.29;92.99;94496.31;5136473;27;20035;-68
2022/01/07 01:02:49;;;;;;;5.70;3.80;;;;;;;1.33;94.10;94501.56;5136333;27;20027;-68
2022/01/07 01:05:16;;;;;;;5.22;3.35;;;;;;;1.45;93.16;94505.44;5136368;27;20023;-68
2022/01/07 01:07:42;;;;;;;4.97;3.15;;;;;;;1.41;91.86;94513.56;5136232;27;20023;-69
2022/01/07 01:10:08;;;;;;;4.68;3.38;;;;;;;1.29;94.30;94506.25;5136439;27;20069;-68
2022/01/07 01:12:35;;;;;;;6.38;4.28;;;;;;;1.24;93.68;94496.84;5136494;27;20058;-67
2022/01/07 01:15:03;;;;;;;5.53;3.45;;;;;;;1.41;93.80;94516.22;5136263;27;20034;-69
2022/01/07 01:17:29;;;;;;;4.40;3.50;;;;;;;1.21;93.51;94504.97;5136363;27;20034;-68
2022/01/07 01:19:54;;;;;;;6.65;3.72;;;;;;;1.27;93.25;94503.25;5135065;27;20027;-69
2022/01/07 01:22:20;;;;;;;6.65;3.65;;;;;;;1.34;92.87;94503.06;5135960;27;20038;-68
2022/01/07 01:24:45;;;;;;;6.78;3.53;;;;;;;1.35;93.14;94496.56;5135985;27;20395;-69
2022/01/07 01:27:11;;;;;;;4.05;2.95;;;;;;;1.38;92.38;94509.06;5136115;27;20081;-69
2022/01/07 01:29:37;;;;;;;5.40;3.30;;;;;;;1.33;92.82;94501.56;5137001;27;20019;-68
2022/01/07 01:32:03;;;;;;;3.90;3.03;;;;;;;1.20;93.62;94500.78;5135895;27;20348;-69
2022/01/07 01:34:29;;;;;;;4.78;3.35;;;;;;;1.26;93.86;94497.16;5135695;27;20027;-69
2022/01/07 01:36:54;;;;;;;4.72;3.72;;;;;;;1.27;93.45;94508.59;5135006;27;20083;-68
2022/01/07 01:39:20;;;;;;;4.82;3.90;;;;;;;1.36;92.39;94503.38;5135739;27;20116;-70
2022/01/07 01:41:46;;;;;;;7.05;3.85;;;;;;;1.14;93.96;94495.97;5135880;27;20092;-68
2022/01/07 01:44:11;;;;;;;6.75;3.95;;;;;;;1.37;92.78;94502.22;5135631;27;20051;-68
2022/01/07 01:46:37;;;;;;;7.30;4.57;;;;;;;1.48;92.58;94510.66;5136078;27;20019;-68
2022/01/07 01:49:03;;;;;;;5.68;3.83;;;;;;;1.46;93.05;94510.34;5134504;27;20521;-68
2022/01/07 01:51:29;;;;;;;5.35;3.60;;;;;;;1.68;91.31;94505.13;5135530;27;20038;-68
2022/01/07 01:53:55;;;;;;;4.82;3.42;;;;;;;1.53;91.12;94504.06;5135680;27;20030;-68
2022/01/07 01:56:20;;;;;;;6.13;3.83;;;;;;;1.59;90.81;94504.25;5135308;27;20039;-68
2022/01/07 01:58:46;;;;;;;6.53;3.70;;;;;;;1.58;91.00;94494.72;5134291;27;20034;-68
2022/01/07 02:01:12;;;;;;;7.57;3.65;;;;;;;1.37;91.58;94496.84;5135267;27;20027;-68
2022/01/07 02:03:38;;;;;;;6.05;3.65;;;;;;;1.29;92.73;94495.56;5134227;27;20027;-68
2022/01/07 02:06:03;;;;;;;6.70;4.35;;;;;;;1.29;93.12;94495.56;5134108;27;20023;-68
2022/01/07 02:08:30;;;;;;;5.78;4.20;;;;;;;1.23;93.09;94497.25;5135151;27;20090;-68
2022/01/07 02:10:59;;;;;;;5.88;4.13;;;;;;;1.31;92.11;94504.66;5135135;27;20448;-68
2022/01/07 02:13:25;;;;;;;5.30;3.30;;;;;;;1.24;92.44;94499.53;5134045;27;20030;-68
2022/01/07 02:15:51;;;;;;;5.93;4.25;;;;;;;1.22;93.09;94506.47;5134824;27;20027;-69
2022/01/07 02:18:17;;;;;;;5.00;3.75;;;;;;;1.20;93.20;94509.56;5133841;27;20107;-68
2022/01/07 02:20:43;;;;;;;5.70;3.78;;;;;;;1.25;93.00;94513.63;5134244;27;20462;-69
2022/01/07 02:23:08;;;;;;;4.88;3.60;;;;;;;1.36;92.47;94514.06;5134781;27;20027;-68
2022/01/07 02:25:34;;;;;;;5.30;3.75;;;;;;;1.42;92.25;94515.06;5134986;27;20086;-69
2022/01/07 02:27:59;;;;;;;6.05;3.85;;;;;;;1.44;91.26;94515.38;5135279;27;20023;-69
2022/01/07 02:30:29;;;;;;;4.18;3.35;;;;;;;1.22;93.23;94517.16;5134968;27;20027;-69
2022/01/07 02:32:56;;;;;;;6.85;3.90;;;;;;;1.32;93.01;94513.44;5134883;27;20049;-69
2022/01/07 02:35:23;;;;;;;4.30;3.38;;;;;;;1.24;92.67;94515.56;5134787;27;20403;-69
2022/01/07 02:37:49;;;;;;;5.43;3.80;;;;;;;1.27;92.70;94516.63;5134643;27;20042;-69
2022/01/07 02:40:14;;;;;;;4.68;3.65;;;;;;;1.22;92.43;94522.53;5134550;27;20023;-69
2022/01/07 02:42:40;;;;;;;5.47;3.70;;;;;;;1.09;93.02;94525.91;5134744;27;20419;-69
2022/01/07 02:45:08;;;;;;;5.55;3.92;;;;;;;0.97;93.91;94518.63;5134290;27;20502;-69
2022/01/07 02:47:55;;;;;;;8.30;4.00;;;;;;;1.15;93.09;94532.22;5133423;27;20123;-69
2022/01/07 02:50:31;;;;;;;8.40;4.53;;;;;;;1.09;92.50;94536.59;5135367;27;20351;-69
2022/01/07 02:52:57;;;;;;;5.93;4.47;;;;;;;1.21;91.96;94537.06;5134797;27;20023;-69
2022/01/07 02:55:24;;;;;;;6.10;4.25;;;;;;;1.25;91.94;94527.75;5134414;27;20034;-68
2022/01/07 02:57:50;;;;;;;5.53;3.97;;;;;;;1.22;92.63;94533.22;5134167;27;20027;-68
2022/01/07 03:00:19;;;;;;;5.75;4.10;;;;;;;1.21;92.29;94527.09;5134126;27;20050;-67
2022/01/07 03:02:47;;;;;;;5.57;3.55;;;;;;;0.93;92.73;94534.00;5134046;27;20023;-68
2022/01/07 03:05:13;;;;;;;5.78;3.90;;;;;;;1.09;93.44;94536.59;5133930;27;20102;-68
2022/01/07 03:07:39;;;;;;;7.20;3.95;;;;;;;1.08;92.54;94524.41;5134269;27;20436;-69
2022/01/07 03:10:07;;;;;;;5.43;3.90;;;;;;;1.14;92.96;94524.63;5133378;27;20424;-69
2022/01/07 03:12:32;;;;;;;6.22;3.92;;;;;;;1.02;92.90;94531.44;5134306;27;20483;-67
2022/01/07 03:14:58;;;;;;;5.97;4.10;;;;;;;1.01;93.78;94529.97;5134951;27;20023;-67
2022/01/07 03:17:23;;;;;;;5.38;4.07;;;;;;;1.13;92.35;94525.78;5134150;27;20053;-69
2022/01/07 03:19:49;;;;;;;8.38;4.30;;;;;;;1.04;93.36;94533.69;5134054;27;20515;-67
2022/01/07 03:22:14;;;;;;;5.75;4.45;;;;;;;1.23;92.13;94534.69;5134033;27;20023;-68
2022/01/07 03:24:40;;;;;;;6.20;4.65;;;;;;;1.09;93.13;94541.94;5133995;27;20051;-68
2022/01/07 03:27:06;;;;;;;6.88;4.55;;;;;;;1.20;92.52;94546.25;5133661;27;20027;-68
2022/01/07 03:29:32;;;;;;;6.90;4.30;;;;;;;0.99;93.24;94546.38;5133637;27;20023;-68
2022/01/07 03:31:57;;;;;;;7.45;4.55;;;;;;;1.11;93.23;94550.28;5132974;27;20027;-68
2022/01/07 03:34:23;;;;;;;5.57;3.85;;;;;;;1.06;93.08;94548.13;5133598;27;20102;-68
2022/01/07 03:36:48;;;;;;;8.73;4.20;;;;;;;0.80;94.75;94542.69;5133568;27;20034;-68
2022/01/07 03:39:14;;;;;;;6.95;4.63;;;;;;;0.67;96.08;94539.97;5133925;27;20034;-68
2022/01/07 03:41:39;;;;;;;6.35;4.55;;;;;;;0.91;94.43;94547.00;5133692;27;20031;-68
2022/01/07 03:44:05;;;;;;;6.57;4.55;;;;;;;0.95;94.33;94553.75;5133621;27;20154;-68
2022/01/07 03:46:30;;;;;;;8.15;4.82;;;;;;;1.00;93.67;94561.25;5133688;27;20030;-67
2022/01/07 03:48:56;;;;;;;7.00;4.55;;;;;;;0.90;93.99;94561.53;5133562;27;20031;-67
2022/01/07 03:51:21;;;;;;;7.75;4.68;;;;;;;0.97;94.29;94562.13;5133722;27;20508;-67
2022/01/07 03:53:47;;;;;;;6.07;4.18;;;;;;;0.75;94.67;94559.25;5133450;27;20065;-68
2022/01/07 03:56:17;;;;;;;9.48;5.55;;;;;;;0.89;94.81;94560.06;5133266;27;20023;-67
2022/01/07 03:58:44;;;;;;;6.55;4.90;;;;;;;1.03;93.45;94554.31;5132438;28;20126;-67
2022/01/07 04:01:09;;;;;;;7.30;5.72;;;;;;;0.98;93.76;94562.84;5133724;27;20058;-67
2022/01/07 04:03:35;;;;;;;8.32;5.63;;;;;;;1.13;93.32;94564.00;5133605;27;20414;-67
2022/01/07 04:06:00;;;;;;;8.45;5.53;;;;;;;1.22;92.33;94565.31;5133565;27;20452;-67
2022/01/07 04:08:26;;;;;;;8.55;5.60;;;;;;;1.31;92.53;94568.84;5133538;27;20038;-67
2022/01/07 04:10:51;;;;;;;7.20;5.10;;;;;;;1.16;91.94;94557.78;5133957;27;20042;-69
2022/01/07 04:13:17;;;;;;;8.43;5.20;;;;;;;1.11;91.86;94558.31;5133425;27;20031;-67
2022/01/07 04:15:42;;;;;;;7.45;4.60;;;;;;;1.10;92.18;94564.81;5133375;27;20023;-67
2022/01/07 04:18:08;;;;;;;8.70;5.45;;;;;;;1.10;92.56;94564.06;5133431;27;20452;-69
2022/01/07 04:20:35;;;;;;;9.68;5.95;;;;;;;1.30;91.68;94572.69;5133699;27;20019;-69
2022/01/07 04:23:01;;;;;;;9.82;5.63;;;;;;;1.14;91.81;94573.50;5133472;27;20031;-69
2022/01/07 04:25:28;;;;;;;9.40;5.75;;;;;;;1.25;90.98;94575.88;5133468;27;20052;-69
2022/01/07 04:27:59;;;;;;;9.43;5.22;;;;;;;1.03;92.31;94580.31;5133394;27;20019;-69
2022/01/07 04:30:29;;;;;;;9.63;5.30;;;;;;;1.10;91.98;94578.19;5133640;27;20471;-68
2022/01/07 04:32:54;;;;;;;8.63;5.10;;;;;;;1.15;nan;94587.63;5133651;27;20031;-69
2022/01/07 04:35:20;;;;;;;8.00;5.20;;;;;;;0.96;93.88;94581.25;5133512;27;20023;-67
2022/01/07 04:37:46;;;;;;;10.15;5.50;;;;;;;0.97;94.18;94582.75;5133212;27;20064;-68
2022/01/07 04:40:13;;;;;;;8.75;5.38;;;;;;;0.90;94.14;94588.28;5133151;27;20027;-67
2022/01/07 04:42:39;;;;;;;9.98;5.28;;;;;;;0.95;93.99;94593.09;5133733;27;20085;-67
2022/01/07 04:45:06;;;;;;;9.73;6.07;;;;;;;1.12;93.62;94588.47;5136748;27;20495;-67
2022/01/07 04:47:35;;;;;;;10.68;6.63;;;;;;;1.12;92.98;94589.22;5136855;27;20031;-68
2022/01/07 04:50:00;;;;;;;9.05;5.75;;;;;;;1.21;92.92;94596.63;5137031;27;20035;-68
2022/01/07 04:52:26;;;;;;;8.70;5.35;;;;;;;1.09;93.19;94600.78;5136751;27;20447;-68
2022/01/07 04:54:51;;;;;;;9.45;5.68;;;;;;;0.96;93.92;94598.03;5137147;27;20031;-68
2022/01/07 04:57:17;;;;;;;10.07;6.30;;;;;;;1.32;93.06;94605.13;5137185;27;20090;-67
2022/01/07 04:59:42;;;;;;;9.98;6.53;;;;;;;1.40;90.93;94608.34;5137514;27;20027;-68
2022/01/07 05:02:08;;;;;;;10.00;6.07;;;;;;;1.36;91.48;94610.34;5136739;27;20069;-68
2022/01/07 05:04:33;;;;;;;12.05;6.55;;;;;;;1.46;91.00;94603.22;5136809;27;20023;-67
2022/01/07 05:06:59;;;;;;;14.95;7.13;;;;;;;1.65;90.20;94607.66;5136448;27;20075;-67
2022/01/07 05:09:24;;;;;;;9.32;5.68;;;;;;;1.64;90.03;94608.09;5136409;27;20027;-67
2022/01/07 05:11:52;;;;;;;10.30;6.63;;;;;;;1.34;92.28;94618.06;5136605;27;20041;-67
2022/01/07 05:14:19;;;;;;;8.93;6.45;;;;;;;1.17;92.97;94612.78;5136526;27;20027;-68
2022/01/07 05:16:44;;;;;;;11.68;6.82;;;;;;;1.21;93.68;94619.94;5136135;27;20034;-68
2022/01/07 05:19:11;;;;;;;9.13;6.13;;;;;;;1.12;93.64;94610.59;5136478;27;20464;-68
2022/01/07 05:21:38;;;;;;;12.60;6.05;;;;;;;1.01;95.40;94618.16;5136010;27;20023;-68
2022/01/07 05:24:04;;;;;;;10.82;6.68;;;;;;;0.99;95.76;94612.47;5136862;27;20476;-68
2022/01/07 05:26:29;;;;;;;12.00;7.57;;;;;;;1.06;95.36;94612.28;5136091;27;20042;-68
2022/01/07 05:28:55;;;;;;;12.82;7.05;;;;;;;1.11;94.22;94609.09;5136040;27;20050;-68
2022/01/07 05:31:23;;;;;;;11.07;6.60;;;;;;;1.28;93.04;94622.41;5135927;27;20106;-68
2022/01/07 05:33:50;;;;;;;11.50;6.25;;;;;;;1.16;95.04;94619.28;5135948;27;20445;-67
2022/01/07 05:36:15;;;;;;;13.27;7.18;;;;;;;1.32;93.53;94618.50;5135684;27;20460;-68
2022/01/07 05:38:41;;;;;;;10.00;6.57;;;;;;;1.32;93.20;94623.06;5135723;27;20039;-68
2022/01/07 05:41:06;;;;;;;12.40;6.60;;;;;;;1.30;93.58;94614.75;5135611;27;20027;-69
2022/01/07 05:43:32;;;;;;;11.20;6.68;;;;;;;1.42;92.75;94627.41;5135535;27;20043;-69
2022/01/07 05:45:57;;;;;;;15.50;6.93;;;;;;;1.18;94.58;94624.94;5135911;27;20050;-67
2022/01/07 05:48:23;;;;;;;10.98;7.03;;;;;;;1.08;94.96;94626.00;5136075;27;20371;-69
2022/01/07 05:50:49;;;;;;;11.85;6.43;;;;;;;1.10;95.31;94623.63;5136187;27;20023;-68
2022/01/07 05:53:14;;;;;;;9.15;6.90;;;;;;;0.99;95.58;94618.56;5135657;27;20023;-68
2022/01/07 05:55:40;;;;;;;11.43;6.40;;;;;;;0.93;96.71;94630.22;5134516;27;20031;-68
2022/01/07 05:58:05;;;;;;;9.93;6.85;;;;;;;0.82;96.58;94625.88;5135911;27;20091;-67
2022/01/07 06:00:31;;;;;;;10.27;6.82;;;;;;;0.73;98.72;94635.66;5134365;27;20026;-67
2022/01/07 06:02:56;;;;;;;11.38;6.85;;;;;;;0.82;97.59;94641.91;5135767;27;20098;-67
2022/01/07 06:05:22;;;;;;;13.45;6.88;;;;;;;0.91;97.60;94637.88;5135189;27;20467;-68
2022/01/07 06:07:47;;;;;;;10.07;6.95;;;;;;;0.88;98.06;94639.47;5134997;27;20019;-68
2022/01/07 06:10:13;;;;;;;9.80;6.75;;;;;;;0.79;98.12;94636.63;5134918;27;20084;-69
2022/01/07 06:12:39;;;;;;;10.43;7.05;;;;;;;0.94;98.17;94637.81;5135282;27;20023;-68
2022/01/07 06:15:05;;;;;;;15.40;7.93;;;;;;;0.94;98.23;94637.03;5135331;27;20475;-68
2022/01/07 06:17:31;;;;;;;15.02;8.07;;;;;;;0.97;97.41;94636.97;5135348;27;20037;-68
2022/01/07 06:19:56;;;;;;;12.20;8.15;;;;;;;1.14;97.01;94639.59;5135408;27;20011;-68
2022/01/07 06:22:22;;;;;;;13.27;7.80;;;;;;;0.92;97.72;94639.41;5134087;27;20023;-68
2022/01/07 06:24:47;;;;;;;12.35;7.75;;;;;;;1.01;97.77;94642.97;5134833;27;20023;-68
2022/01/07 06:27:13;;;;;;;14.65;7.88;;;;;;;1.00;95.82;94640.72;5135235;27;20019;-68
2022/01/07 06:29:39;;;;;;;13.70;7.93;;;;;;;0.84;97.31;94650.25;5134895;27;20045;-68
2022/01/07 06:32:06;;;;;;;11.80;7.53;;;;;;;1.05;97.47;94658.94;5134804;27;20034;-68
2022/01/07 06:34:32;;;;;;;12.55;8.20;;;;;;;1.05;96.52;94656.25;5134868;27;20011;-68
2022/01/07 06:36:59;;;;;;;12.57;7.57;;;;;;;1.17;96.44;94655.56;5133740;27;20082;-68
2022/01/07 06:39:24;;;;;;;14.52;7.88;;;;;;;1.26;95.63;94656.88;5134609;27;20038;-69
2022/01/07 06:41:51;;;;;;;14.88;8.05;;;;;;;1.14;94.91;94651.03;5134887;27;20027;-69
2022/01/07 07:31:20;;;;;;;15.25;7.45;;;;;;;1.74;89.28;94662.47;5133800;27;20042;-69
2022/01/07 07:36:30;;;;;;;14.98;9.23;;;;;;;2.05;88.25;94676.13;5133774;27;20059;-70
2022/01/07 07:39:03;;;;;;;12.50;7.78;;;;;;;1.76;89.15;94666.22;5134085;27;20102;-69
2022/01/07 07:41:30;;;;;;;16.35;8.02;;;;;;;1.76;89.82;94665.47;5133788;27;20023;-69
2022/01/07 07:43:57;;;;;;;15.52;8.90;;;;;;;1.93;88.76;94669.56;5133608;27;20070;-69
2022/01/07 07:46:24;;;;;;;19.23;9.80;;;;;;;1.98;88.49;94677.09;5133670;27;20026;-69
2022/01/07 07:48:51;;;;;;;17.92;9.73;;;;;;;2.14;87.91;94672.81;5133519;27;20027;-69
2022/01/07 07:51:17;;;;;;;18.42;9.85;;;;;;;2.30;86.38;94674.66;5133635;27;20427;-69
2022/01/07 07:53:43;;;;;;;14.07;8.55;;;;;;;2.15;87.41;94675.06;5133484;27;20504;-69
2022/01/07 07:56:12;;;;;;;20.17;9.90;;;;;;;1.93;88.16;94679.53;5133606;27;20107;-69
2022/01/07 07:58:38;;;;;;;20.50;9.68;;;;;;;1.96;87.85;94679.41;5132431;28;20027;-69
2022/01/07 08:17:13;;;;;;;16.85;10.23;;;;;;;2.19;85.93;94685.66;5133718;27;20043;-70
2022/01/07 08:19:39;;;;;;;23.27;11.57;;;;;;;2.23;84.47;94688.25;5136926;27;20023;-70
2022/01/07 08:22:05;;;;;;;20.75;11.05;;;;;;;2.18;85.04;94679.56;5137370;27;20048;-70
2022/01/07 08:24:31;;;;;;;17.13;11.35;;;;;;;2.18;85.53;94682.25;5137363;27;20045;-70
2022/01/07 08:26:56;;;;;;;17.77;11.18;;;;;;;2.39;84.75;94677.44;5138232;27;20035;-70
2022/01/07 08:29:25;;;;;;;15.93;10.65;;;;;;;2.47;83.86;94681.41;5141712;27;20027;-70
2022/01/07 08:37:00;;;;;;;16.60;10.77;;;;;;;2.94;81.23;94687.25;5137278;27;20070;-70
2022/01/07 08:39:26;;;;;;;18.33;10.85;;;;;;;3.03;80.20;94677.34;5136982;27;20055;-70
2022/01/07 08:41:52;;;;;;;16.60;10.18;;;;;;;2.60;82.19;94677.97;5137184;27;20034;-69
2022/01/07 08:44:19;;;;;;;15.15;10.55;;;;;;;2.77;81.32;94676.66;5136589;27;20475;-70
2022/01/07 08:46:45;;;;;;;22.13;10.80;;;;;;;3.01;80.30;94669.00;5136756;27;20030;-69
2022/01/07 08:49:10;;;;;;;17.92;10.25;;;;;;;3.28;79.16;94667.72;5136707;27;20390;-70
2022/01/07 08:51:36;;;;;;;17.98;10.75;;;;;;;3.25;78.69;94665.94;5136445;27;20027;-69
2022/01/07 08:54:02;;;;;;;23.83;9.90;;;;;;;3.08;79.59;94665.34;5136643;27;20492;-69
2022/01/07 08:56:28;;;;;;;16.70;10.23;;;;;;;3.43;77.70;94662.63;5136555;27;20034;-70
2022/01/07 08:58:56;;;;;;;18.08;9.45;;;;;;;3.69;77.28;94662.53;5136602;27;20042;-70
2022/01/07 09:01:23;;;;;;;15.43;9.63;;;;;;;3.49;76.13;94660.91;5136616;27;20376;-70
2022/01/07 09:03:49;;;;;;;16.27;10.70;;;;;;;3.70;76.22;94658.66;5136908;27;20055;-70
2022/01/07 09:06:14;;;;;;;22.42;11.27;;;;;;;3.86;76.03;94645.03;5136411;27;20471;-70
2022/01/07 09:08:40;;;;;;;19.88;11.40;;;;;;;3.78;74.85;94638.41;5136319;27;20031;-69
2022/01/07 09:11:06;;;;;;;22.33;10.85;;;;;;;3.84;74.88;94658.13;5136339;27;20022;-70
2022/01/07 09:13:31;;;;;;;20.05;11.27;;;;;;;3.83;75.40;94651.28;5136241;27;20105;-70
2022/01/07 09:15:57;;;;;;;17.98;11.32;;;;;;;3.85;75.47;94648.91;5136192;27;20463;-69
2022/01/07 09:18:22;;;;;;;20.88;11.25;;;;;;;3.85;75.31;94648.91;5136642;27;20030;-69
2022/01/07 09:20:48;;;;;;;23.60;11.55;;;;;;;3.51;76.96;94647.78;5136051;27;20172;-69
2022/01/07 09:23:14;;;;;;;22.38;11.80;;;;;;;3.80;75.71;94652.16;5136208;27;20027;-70
2022/01/07 09:25:41;;;;;;;20.05;11.90;;;;;;;4.02;75.00;94637.94;5135015;27;20379;-70
2022/01/07 09:28:07;;;;;;;21.00;12.57;;;;;;;3.51;78.08;94637.06;5136369;27;20164;-70
2022/01/07 09:30:35;;;;;;;22.40;13.18;;;;;;;3.88;76.05;94641.91;5136222;27;20030;-70
2022/01/07 09:33:00;;;;;;;23.02;13.07;;;;;;;4.08;75.90;94622.75;5136406;27;20031;-71
2022/01/07 09:35:27;;;;;;;24.15;13.25;;;;;;;4.14;75.41;94636.38;5135935;27;20027;-71
2022/01/07 09:37:53;;;;;;;30.60;12.60;;;;;;;4.42;74.38;94633.78;5136162;27;20023;-71
2022/01/07 09:40:19;;;;;;;21.75;12.07;;;;;;;3.74;76.12;94621.69;5135910;27;20031;-70
2022/01/07 09:42:58;;;;;;;21.60;12.02;;;;;;;3.92;75.76;94631.78;5135638;27;20087;-71
2022/01/07 09:45:25;;;;;;;23.63;13.27;;;;;;;4.13;74.27;94622.19;5136112;27;20094;-70
2022/01/07 09:47:52;;;;;;;20.25;12.85;;;;;;;4.40;73.48;94621.53;5135725;27;20039;-70
2022/01/07 09:50:18;;;;;;;26.20;12.82;;;;;;;4.52;72.99;94619.91;5135927;27;20026;-70
2022/01/07 09:52:43;;;;;;;19.85;13.50;;;;;;;4.79;72.12;94618.50;5135438;27;20045;-70
2022/01/07 09:55:09;;;;;;;20.13;13.13;;;;;;;4.80;71.16;94614.63;5135600;27;20027;-70
2022/01/07 09:57:34;;;;;;;24.20;13.07;;;;;;;5.30;70.24;94617.19;5135990;27;20023;-70
2022/01/07 10:00:01;;;;;;;21.95;12.80;;;;;;;5.34;69.53;94611.66;5135412;27;20103;-70
2022/01/07 10:02:26;;;;;;;22.20;12.93;;;;;;;5.18;69.92;94602.69;5135331;27;20076;-70
2022/01/07 10:04:52;;;;;;;21.33;11.93;;;;;;;5.36;68.22;94610.00;5135183;27;20396;-69
2022/01/07 10:07:23;;;;;;;18.42;12.35;;;;;;;5.40;68.66;94610.59;5135599;27;20034;-71
2022/01/07 10:10:08;;;;;;;21.55;11.90;;;;;;;5.13;69.12;94608.66;5135444;27;20471;-70
2022/01/07 10:12:49;;;;;;;25.40;13.13;;;;;;;5.37;69.22;94610.75;5135475;27;20050;-70
2022/01/07 10:15:20;;;;;;;20.20;13.13;;;;;;;5.38;69.65;94606.88;5136979;27;20019;-69
2022/01/07 10:17:55;;;;;;;21.38;12.15;;;;;;;5.31;68.52;94599.84;5137086;27;20110;-70
2022/01/07 10:20:37;;;;;;;34.10;13.32;;;;;;;5.43;68.40;94603.56;5135567;27;20031;-70
2022/01/07 10:23:07;;;;;;;17.52;11.23;;;;;;;5.39;67.07;94603.72;5135186;27;20027;-70
2022/01/07 10:25:34;;;;;;;17.60;11.45;;;;;;;5.50;67.21;94603.25;5135372;27;20062;-70
2022/01/07 10:28:07;;;;;;;20.80;11.80;;;;;;;5.54;65.67;94595.78;5134933;27;20027;-69
2022/01/07 10:30:44;;;;;;;18.35;11.05;;;;;;;5.61;65.32;94596.69;5135589;27;20136;-69
2022/01/07 10:33:50;;;;;;;21.80;10.77;;;;;;;5.91;64.63;94592.25;5134932;27;20516;-73
2022/01/07 10:36:21;;;;;;;26.30;11.48;;;;;;;5.79;65.06;94591.22;5111092;27;20137;-72
2022/01/07 10:38:57;;;;;;;19.95;12.00;;;;;;;5.81;64.64;94577.31;5134955;27;20030;-71
2022/01/07 10:41:23;;;;;;;27.13;12.35;;;;;;;6.04;64.99;94568.59;5134128;27;20387;-71
2022/01/07 10:43:52;;;;;;;22.67;12.00;;;;;;;6.00;65.19;94575.34;5134601;27;20047;-71
2022/01/07 10:46:27;;;;;;;19.52;10.90;;;;;;;6.10;63.42;94576.81;5135065;27;20019;-71
2022/01/07 10:48:55;;;;;;;14.80;10.07;;;;;;;6.16;63.34;94575.00;5134845;27;20068;-70
2022/01/07 10:51:32;;;;;;;19.55;10.25;;;;;;;6.02;63.65;94575.63;5134588;27;20035;-72
2022/01/07 10:54:01;;;;;;;18.63;10.95;;;;;;;5.82;63.84;94574.19;5134403;27;20023;-71
2022/01/07 10:56:44;;;;;;;18.15;10.82;;;;;;;6.26;62.53;94571.03;5133440;27;20432;-71
2022/01/07 10:59:12;;;;;;;17.75;11.68;;;;;;;6.34;61.96;94576.09;5134581;27;20042;-70
2022/01/07 11:01:41;;;;;;;21.60;12.13;;;;;;;6.09;62.51;94572.59;5134610;27;20051;-70
2022/01/07 11:04:09;;;;;;;20.67;10.40;;;;;;;6.23;62.00;94569.28;5133257;27;20038;-70
2022/01/07 11:06:37;;;;;;;16.80;9.13;;;;;;;6.30;60.59;94572.81;5134303;27;20136;-70
2022/01/07 11:09:07;;;;;;;17.27;8.15;;;;;;;5.64;62.06;94566.88;5134280;27;20352;-70
2022/01/07 11:11:33;;;;;;;23.20;8.98;;;;;;;5.85;61.58;94562.50;5134542;27;20106;-70
2022/01/07 11:14:07;;;;;;;17.60;9.25;;;;;;;5.64;63.03;94563.44;5134270;27;20058;-70
2022/01/07 11:16:33;;;;;;;19.92;9.18;;;;;;;5.72;63.02;94561.94;5134309;27;20114;-71
2022/01/07 11:18:59;;;;;;;16.08;8.13;;;;;;;6.07;60.90;94551.50;5135141;27;20412;-71
2022/01/07 11:21:25;;;;;;;16.30;8.50;;;;;;;5.91;59.27;94557.97;5134444;27;20375;-71
2022/01/07 11:23:50;;;;;;;11.40;6.70;;;;;;;5.46;59.94;94551.53;5134475;27;20023;-70
2022/01/07 11:26:16;;;;;;;11.02;7.38;;;;;;;5.85;59.55;94542.88;5133175;27;20106;-71
2022/01/07 11:29:00;;;;;;;16.98;7.38;;;;;;;5.89;58.69;94549.63;5134121;27;20023;-70
2022/01/07 11:31:27;;;;;;;14.10;7.28;;;;;;;6.19;57.85;94551.75;5134667;27;20047;-70
2022/01/07 11:34:22;;;;;;;20.67;7.32;;;;;;;6.04;58.24;94557.06;5134611;27;20106;-70
2022/01/07 11:36:48;;;;;;;15.18;7.97;;;;;;;5.84;57.78;94550.22;5134174;27;20015;-71
2022/01/07 11:39:14;;;;;;;14.10;9.20;;;;;;;6.04;57.30;94547.03;5133095;28;20034;-70
2022/01/07 11:41:44;;;;;;;15.13;7.63;;;;;;;6.07;56.06;94546.13;5133926;27;20088;-69
2022/01/07 11:44:12;;;;;;;18.73;7.88;;;;;;;6.23;56.00;94544.25;5133676;27;20103;-69
2022/01/07 11:46:38;;;;;;;14.98;7.68;;;;;;;5.81;56.90;94540.38;5134036;27;20041;-70
2022/01/07 11:49:03;;;;;;;11.82;7.35;;;;;;;5.88;56.61;94533.91;5134346;28;20019;-70
2022/01/07 11:51:38;;;;;;;16.02;7.40;;;;;;;6.14;56.21;94533.53;5133831;27;20027;-70
2022/01/07 11:54:05;;;;;;;15.25;8.10;;;;;;;6.33;55.58;94539.56;5136454;27;20027;-70
2022/01/07 11:56:31;;;;;;;29.10;11.57;;;;;;;5.92;56.66;94534.50;5138231;27;20096;-69
2022/01/07 11:58:59;;;;;;;14.13;8.57;;;;;;;5.73;58.03;94529.16;5138149;27;20083;-70
2022/01/07 12:01:26;;;;;;;13.77;9.07;;;;;;;5.91;57.95;94539.13;5141764;27;20027;-69
2022/01/07 12:03:56;;;;;;;14.30;9.13;;;;;;;5.94;58.26;94529.38;5138740;27;20060;-69
2022/01/07 12:06:25;;;;;;;18.17;10.05;;;;;;;6.09;58.00;94522.19;5138515;27;20019;-70
2022/01/07 12:09:03;;;;;;;16.05;7.97;;;;;;;5.77;57.84;94529.00;5138262;27;20038;-70
2022/01/07 12:11:34;;;;;;;14.18;8.45;;;;;;;5.72;57.36;94527.66;5138019;27;20015;-70
2022/01/07 12:14:01;;;;;;;13.93;9.15;;;;;;;5.85;57.63;94527.47;5137700;27;20080;-70
2022/01/07 12:16:31;;;;;;;14.98;9.05;;;;;;;6.29;57.36;94533.59;5137626;27;20114;-70
2022/01/07 12:19:11;;;;;;;15.73;8.63;;;;;;;6.52;56.19;94535.56;5137891;27;20025;-68
2022/01/07 12:21:38;;;;;;;19.17;9.10;;;;;;;6.33;56.21;94534.91;5137897;27;20027;-68
2022/01/07 12:24:07;;;;;;;21.92;8.55;;;;;;;6.49;55.58;94525.69;5137481;27;20490;-69
2022/01/07 12:26:33;;;;;;;16.58;9.93;;;;;;;6.44;56.39;94529.03;5137398;27;20046;-67
2022/01/07 12:28:58;;;;;;;22.42;10.05;;;;;;;6.40;56.84;94528.44;5137459;27;20034;-67
2022/01/07 12:31:24;;;;;;;24.25;11.07;;;;;;;6.38;57.22;94525.44;5137641;27;20075;-68
2022/01/07 12:33:55;;;;;;;22.70;10.30;;;;;;;6.21;56.57;94528.53;5136236;27;20360;-67
2022/01/07 12:36:35;;;;;;;18.83;8.77;;;;;;;6.18;55.18;94524.06;5137427;27;20119;-67
2022/01/07 12:39:07;;;;;;;16.33;9.00;;;;;;;6.22;56.22;94523.91;5119373;27;20026;-67
2022/01/07 12:41:33;;;;;;;21.60;9.38;;;;;;;6.05;56.47;94510.81;5137140;27;20034;-67
2022/01/07 12:44:08;;;;;;;16.42;8.88;;;;;;;6.28;55.27;94513.25;5137023;27;20047;-67
2022/01/07 12:46:34;;;;;;;16.00;8.90;;;;;;;6.29;54.88;94520.88;5137034;27;20015;-67